sensor_id;sensor_type;location;lat;lon;timestamp;P1;durP1;ratioP1;P2;durP2;ratioP2
15055;SDS011;7626;42.674;23.284;2023-07-30T00:00:31;3.28;;;2.35;;
15055;SDS011;7626;42.674;23.284;2023-07-30T00:02:58;2.95;;;2.42;;
15055;SDS011;7626;42.674;23.284;2023-07-30T00:05:24;2.50;;;2.30;;
15055;SDS011;7626;42.674;23.284;2023-07-30T00:07:51;2.88;;;2.60;;
15055;SDS011;7626;42.674;23.284;2023-07-30T00:10:19;2.50;;;2.30;;
15055;SDS011;7626;42.674;23.284;2023-07-30T00:12:46;2.65;;;2.38;;
15055;SDS011;7626;42.674;23.284;2023-07-30T00:15:14;3.53;;;2.47;;
15055;SDS011;7626;42.674;23.284;2023-07-30T00:17:40;2.53;;;2.33;;
15055;SDS011;7626;42.674;23.284;2023-07-30T00:20:07;2.97;;;2.22;;
15055;SDS011;7626;42.674;23.284;2023-07-30T00:22:34;3.58;;;2.53;;
15055;SDS011;7626;42.674;23.284;2023-07-30T00:25:00;2.38;;;2.10;;
15055;SDS011;7626;42.674;23.284;2023-07-30T00:27:27;2.47;;;2.28;;
15055;SDS011;7626;42.674;23.284;2023-07-30T00:29:53;2.58;;;2.30;;
15055;SDS011;7626;42.674;23.284;2023-07-30T00:32:21;2.83;;;2.25;;
15055;SDS011;7626;42.674;23.284;2023-07-30T00:34:48;3.53;;;2.55;;
15055;SDS011;7626;42.674;23.284;2023-07-30T00:37:14;2.47;;;2.28;;
15055;SDS011;7626;42.674;23.284;2023-07-30T00:39:41;3.38;;;2.50;;
15055;SDS011;7626;42.674;23.284;2023-07-30T00:42:07;3.38;;;2.22;;
15055;SDS011;7626;42.674;23.284;2023-07-30T00:44:34;2.50;;;2.30;;
15055;SDS011;7626;42.674;23.284;2023-07-30T00:47:00;2.60;;;2.40;;
15055;SDS011;7626;42.674;23.284;2023-07-30T00:49:28;2.13;;;2.03;;
15055;SDS011;7626;42.674;23.284;2023-07-30T00:51:55;2.60;;;2.40;;
15055;SDS011;7626;42.674;23.284;2023-07-30T00:54:21;3.65;;;2.42;;
15055;SDS011;7626;42.674;23.284;2023-07-30T00:56:49;2.75;;;2.55;;
15055;SDS011;7626;42.674;23.284;2023-07-30T00:59:16;4.18;;;2.35;;
15055;SDS011;7626;42.674;23.284;2023-07-30T01:01:43;3.08;;;2.63;;
15055;SDS011;7626;42.674;23.284;2023-07-30T01:04:11;3.83;;;2.40;;
15055;SDS011;7626;42.674;23.284;2023-07-30T01:06:39;3.03;;;2.50;;
15055;SDS011;7626;42.674;23.284;2023-07-30T01:09:05;2.90;;;2.30;;
15055;SDS011;7626;42.674;23.284;2023-07-30T01:11:32;3.28;;;2.35;;
15055;SDS011;7626;42.674;23.284;2023-07-30T01:13:59;2.85;;;2.58;;
15055;SDS011;7626;42.674;23.284;2023-07-30T01:16:25;2.60;;;2.40;;
15055;SDS011;7626;42.674;23.284;2023-07-30T01:18:52;2.60;;;2.40;;
15055;SDS011;7626;42.674;23.284;2023-07-30T01:21:20;4.32;;;2.80;;
15055;SDS011;7626;42.674;23.284;2023-07-30T01:23:46;4.47;;;3.92;;
15055;SDS011;7626;42.674;23.284;2023-07-30T01:26:15;4.50;;;3.85;;
15055;SDS011;7626;42.674;23.284;2023-07-30T01:28:45;4.18;;;3.78;;
15055;SDS011;7626;42.674;23.284;2023-07-30T01:31:12;3.85;;;3.45;;
15055;SDS011;7626;42.674;23.284;2023-07-30T01:33:40;3.72;;;3.40;;
15055;SDS011;7626;42.674;23.284;2023-07-30T01:36:07;3.30;;;2.80;;
15055;SDS011;7626;42.674;23.284;2023-07-30T01:38:36;3.63;;;3.25;;
15055;SDS011;7626;42.674;23.284;2023-07-30T01:41:04;3.90;;;3.50;;
15055;SDS011;7626;42.674;23.284;2023-07-30T01:43:31;3.95;;;3.55;;
15055;SDS011;7626;42.674;23.284;2023-07-30T01:45:57;4.18;;;3.25;;
15055;SDS011;7626;42.674;23.284;2023-07-30T01:48:24;3.35;;;3.05;;
15055;SDS011;7626;42.674;23.284;2023-07-30T01:50:50;3.03;;;2.78;;
15055;SDS011;7626;42.674;23.284;2023-07-30T01:53:17;3.42;;;3.13;;
15055;SDS011;7626;42.674;23.284;2023-07-30T01:55:44;3.38;;;2.97;;
15055;SDS011;7626;42.674;23.284;2023-07-30T01:58:11;3.15;;;2.83;;
15055;SDS011;7626;42.674;23.284;2023-07-30T02:00:38;3.60;;;3.28;;
15055;SDS011;7626;42.674;23.284;2023-07-30T02:03:05;4.00;;;3.70;;
15055;SDS011;7626;42.674;23.284;2023-07-30T02:05:31;3.92;;;3.38;;
15055;SDS011;7626;42.674;23.284;2023-07-30T02:07:58;3.60;;;3.30;;
15055;SDS011;7626;42.674;23.284;2023-07-30T02:10:24;3.92;;;3.53;;
15055;SDS011;7626;42.674;23.284;2023-07-30T02:12:52;3.67;;;3.38;;
15055;SDS011;7626;42.674;23.284;2023-07-30T02:15:19;4.32;;;3.65;;
15055;SDS011;7626;42.674;23.284;2023-07-30T02:17:45;4.32;;;3.92;;
15055;SDS011;7626;42.674;23.284;2023-07-30T02:20:12;4.10;;;3.70;;
15055;SDS011;7626;42.674;23.284;2023-07-30T02:22:38;4.60;;;3.92;;
15055;SDS011;7626;42.674;23.284;2023-07-30T02:25:05;4.22;;;3.83;;
15055;SDS011;7626;42.674;23.284;2023-07-30T02:27:31;3.90;;;3.50;;
15055;SDS011;7626;42.674;23.284;2023-07-30T02:29:59;3.67;;;3.38;;
15055;SDS011;7626;42.674;23.284;2023-07-30T02:32:26;3.70;;;3.25;;
15055;SDS011;7626;42.674;23.284;2023-07-30T02:34:52;3.85;;;3.55;;
15055;SDS011;7626;42.674;23.284;2023-07-30T02:37:19;4.22;;;3.67;;
15055;SDS011;7626;42.674;23.284;2023-07-30T02:39:45;5.00;;;4.50;;
15055;SDS011;7626;42.674;23.284;2023-07-30T02:42:12;5.18;;;4.68;;
15055;SDS011;7626;42.674;23.284;2023-07-30T02:44:38;4.50;;;4.10;;
15055;SDS011;7626;42.674;23.284;2023-07-30T02:47:06;4.47;;;4.07;;
15055;SDS011;7626;42.674;23.284;2023-07-30T02:49:33;4.38;;;3.97;;
15055;SDS011;7626;42.674;23.284;2023-07-30T02:51:59;3.92;;;3.55;;
15055;SDS011;7626;42.674;23.284;2023-07-30T02:54:26;4.05;;;3.65;;
15055;SDS011;7626;42.674;23.284;2023-07-30T02:56:52;4.55;;;4.15;;
15055;SDS011;7626;42.674;23.284;2023-07-30T02:59:19;4.60;;;4.20;;
15055;SDS011;7626;42.674;23.284;2023-07-30T03:01:45;4.80;;;4.40;;
15055;SDS011;7626;42.674;23.284;2023-07-30T03:04:13;4.30;;;3.85;;
15055;SDS011;7626;42.674;23.284;2023-07-30T03:06:39;4.60;;;3.67;;
15055;SDS011;7626;42.674;23.284;2023-07-30T03:09:06;4.55;;;4.15;;
15055;SDS011;7626;42.674;23.284;2023-07-30T03:11:32;3.72;;;3.40;;
15055;SDS011;7626;42.674;23.284;2023-07-30T03:13:59;4.95;;;4.13;;
15055;SDS011;7626;42.674;23.284;2023-07-30T03:16:25;5.10;;;4.60;;
15055;SDS011;7626;42.674;23.284;2023-07-30T03:18:52;6.05;;;5.45;;
15055;SDS011;7626;42.674;23.284;2023-07-30T03:21:20;5.50;;;5.00;;
15055;SDS011;7626;42.674;23.284;2023-07-30T03:23:46;6.30;;;5.70;;
15055;SDS011;7626;42.674;23.284;2023-07-30T03:26:13;6.65;;;5.60;;
15055;SDS011;7626;42.674;23.284;2023-07-30T03:28:40;5.38;;;4.88;;
15055;SDS011;7626;42.674;23.284;2023-07-30T03:31:06;5.32;;;4.82;;
15055;SDS011;7626;42.674;23.284;2023-07-30T03:33:33;5.38;;;4.72;;
15055;SDS011;7626;42.674;23.284;2023-07-30T03:36:00;5.00;;;4.50;;
15055;SDS011;7626;42.674;23.284;2023-07-30T03:38:27;6.78;;;5.70;;
15055;SDS011;7626;42.674;23.284;2023-07-30T03:40:54;6.90;;;6.20;;
15055;SDS011;7626;42.674;23.284;2023-07-30T03:43:20;7.25;;;4.97;;
15055;SDS011;7626;42.674;23.284;2023-07-30T03:45:47;6.05;;;5.07;;
15055;SDS011;7626;42.674;23.284;2023-07-30T03:48:14;5.68;;;5.07;;
15055;SDS011;7626;42.674;23.284;2023-07-30T03:50:40;5.93;;;5.32;;
15055;SDS011;7626;42.674;23.284;2023-07-30T03:53:07;5.28;;;4.68;;
15055;SDS011;7626;42.674;23.284;2023-07-30T03:55:35;4.88;;;4.38;;
15055;SDS011;7626;42.674;23.284;2023-07-30T03:58:01;6.00;;;5.45;;
15055;SDS011;7626;42.674;23.284;2023-07-30T04:00:28;6.88;;;6.07;;
15055;SDS011;7626;42.674;23.284;2023-07-30T04:02:54;6.57;;;5.97;;
15055;SDS011;7626;42.674;23.284;2023-07-30T04:05:21;6.68;;;6.05;;
15055;SDS011;7626;42.674;23.284;2023-07-30T04:07:47;6.03;;;5.43;;
15055;SDS011;7626;42.674;23.284;2023-07-30T04:10:14;6.25;;;5.20;;
15055;SDS011;7626;42.674;23.284;2023-07-30T04:12:42;5.78;;;4.97;;
15055;SDS011;7626;42.674;23.284;2023-07-30T04:15:08;8.18;;;6.93;;
15055;SDS011;7626;42.674;23.284;2023-07-30T04:17:35;7.10;;;6.40;;
15055;SDS011;7626;42.674;23.284;2023-07-30T04:20:02;6.75;;;6.05;;
15055;SDS011;7626;42.674;23.284;2023-07-30T04:22:29;6.38;;;5.78;;
15055;SDS011;7626;42.674;23.284;2023-07-30T04:24:56;6.63;;;6.03;;
15055;SDS011;7626;42.674;23.284;2023-07-30T04:27:22;8.30;;;6.95;;
15055;SDS011;7626;42.674;23.284;2023-07-30T04:29:50;7.25;;;6.32;;
15055;SDS011;7626;42.674;23.284;2023-07-30T04:32:16;6.97;;;6.10;;
15055;SDS011;7626;42.674;23.284;2023-07-30T04:34:43;6.35;;;5.75;;
15055;SDS011;7626;42.674;23.284;2023-07-30T04:37:09;6.28;;;5.68;;
15055;SDS011;7626;42.674;23.284;2023-07-30T04:39:36;6.80;;;6.15;;
15055;SDS011;7626;42.674;23.284;2023-07-30T04:42:03;6.40;;;5.80;;
15055;SDS011;7626;42.674;23.284;2023-07-30T04:44:29;6.10;;;5.40;;
15055;SDS011;7626;42.674;23.284;2023-07-30T04:46:57;5.75;;;5.25;;
15055;SDS011;7626;42.674;23.284;2023-07-30T04:49:24;6.07;;;5.47;;
15055;SDS011;7626;42.674;23.284;2023-07-30T04:51:50;5.90;;;5.38;;
15055;SDS011;7626;42.674;23.284;2023-07-30T04:54:17;5.88;;;5.35;;
15055;SDS011;7626;42.674;23.284;2023-07-30T04:56:43;6.60;;;5.20;;
15055;SDS011;7626;42.674;23.284;2023-07-30T04:59:10;5.65;;;5.15;;
15055;SDS011;7626;42.674;23.284;2023-07-30T05:01:36;6.72;;;5.55;;
15055;SDS011;7626;42.674;23.284;2023-07-30T05:04:04;4.68;;;4.28;;
15055;SDS011;7626;42.674;23.284;2023-07-30T05:06:30;4.95;;;4.45;;
15055;SDS011;7626;42.674;23.284;2023-07-30T05:08:58;4.93;;;4.30;;
15055;SDS011;7626;42.674;23.284;2023-07-30T05:11:24;5.28;;;4.78;;
15055;SDS011;7626;42.674;23.284;2023-07-30T05:13:51;4.68;;;4.28;;
15055;SDS011;7626;42.674;23.284;2023-07-30T05:16:17;4.57;;;4.15;;
15055;SDS011;7626;42.674;23.284;2023-07-30T05:18:43;4.32;;;3.92;;
15055;SDS011;7626;42.674;23.284;2023-07-30T05:21:11;4.63;;;4.22;;
15055;SDS011;7626;42.674;23.284;2023-07-30T05:23:38;4.20;;;3.80;;
15055;SDS011;7626;42.674;23.284;2023-07-30T05:26:04;4.95;;;4.55;;
15055;SDS011;7626;42.674;23.284;2023-07-30T05:28:31;5.22;;;4.57;;
15055;SDS011;7626;42.674;23.284;2023-07-30T05:30:58;5.28;;;4.80;;
15055;SDS011;7626;42.674;23.284;2023-07-30T05:33:24;5.15;;;4.65;;
15055;SDS011;7626;42.674;23.284;2023-07-30T05:35:51;4.65;;;4.25;;
15055;SDS011;7626;42.674;23.284;2023-07-30T05:38:18;4.93;;;4.43;;
15055;SDS011;7626;42.674;23.284;2023-07-30T05:40:45;4.50;;;4.10;;
15055;SDS011;7626;42.674;23.284;2023-07-30T05:43:12;5.10;;;4.60;;
15055;SDS011;7626;42.674;23.284;2023-07-30T05:45:39;5.25;;;4.68;;
15055;SDS011;7626;42.674;23.284;2023-07-30T05:48:05;4.60;;;4.05;;
15055;SDS011;7626;42.674;23.284;2023-07-30T05:50:32;4.97;;;4.57;;
15055;SDS011;7626;42.674;23.284;2023-07-30T05:52:58;4.50;;;4.05;;
15055;SDS011;7626;42.674;23.284;2023-07-30T05:55:26;4.65;;;4.25;;
15055;SDS011;7626;42.674;23.284;2023-07-30T05:57:52;5.22;;;4.15;;
15055;SDS011;7626;42.674;23.284;2023-07-30T06:00:20;5.55;;;4.28;;
15055;SDS011;7626;42.674;23.284;2023-07-30T06:02:47;4.60;;;4.20;;
15055;SDS011;7626;42.674;23.284;2023-07-30T06:05:13;4.70;;;4.15;;
15055;SDS011;7626;42.674;23.284;2023-07-30T06:07:40;4.60;;;4.15;;
15055;SDS011;7626;42.674;23.284;2023-07-30T06:10:06;4.10;;;3.70;;
15055;SDS011;7626;42.674;23.284;2023-07-30T06:12:34;4.38;;;3.97;;
15055;SDS011;7626;42.674;23.284;2023-07-30T06:15:01;4.55;;;4.15;;
15055;SDS011;7626;42.674;23.284;2023-07-30T06:17:27;4.45;;;3.97;;
15055;SDS011;7626;42.674;23.284;2023-07-30T06:19:54;4.20;;;3.78;;
15055;SDS011;7626;42.674;23.284;2023-07-30T06:22:20;4.13;;;3.83;;
15055;SDS011;7626;42.674;23.284;2023-07-30T06:24:47;4.47;;;3.85;;
15055;SDS011;7626;42.674;23.284;2023-07-30T06:27:13;4.00;;;3.70;;
15055;SDS011;7626;42.674;23.284;2023-07-30T06:29:41;3.97;;;3.63;;
15055;SDS011;7626;42.674;23.284;2023-07-30T06:32:09;4.18;;;3.78;;
15055;SDS011;7626;42.674;23.284;2023-07-30T06:34:35;3.88;;;3.47;;
15055;SDS011;7626;42.674;23.284;2023-07-30T06:37:02;3.70;;;3.22;;
15055;SDS011;7626;42.674;23.284;2023-07-30T06:39:29;3.67;;;3.38;;
15055;SDS011;7626;42.674;23.284;2023-07-30T06:41:55;3.55;;;3.25;;
15055;SDS011;7626;42.674;23.284;2023-07-30T06:44:22;4.20;;;3.70;;
15055;SDS011;7626;42.674;23.284;2023-07-30T06:46:51;3.60;;;3.30;;
15055;SDS011;7626;42.674;23.284;2023-07-30T06:49:17;3.72;;;3.40;;
15055;SDS011;7626;42.674;23.284;2023-07-30T06:51:44;3.22;;;2.92;;
15055;SDS011;7626;42.674;23.284;2023-07-30T06:54:10;3.83;;;3.53;;
15055;SDS011;7626;42.674;23.284;2023-07-30T06:56:36;3.72;;;3.35;;
15055;SDS011;7626;42.674;23.284;2023-07-30T06:59:03;3.40;;;3.10;;
15055;SDS011;7626;42.674;23.284;2023-07-30T07:01:29;3.30;;;3.05;;
15055;SDS011;7626;42.674;23.284;2023-07-30T07:03:57;3.63;;;3.25;;
15055;SDS011;7626;42.674;23.284;2023-07-30T07:06:24;3.50;;;3.20;;
15055;SDS011;7626;42.674;23.284;2023-07-30T07:08:50;3.50;;;3.20;;
15055;SDS011;7626;42.674;23.284;2023-07-30T07:11:17;3.60;;;3.10;;
15055;SDS011;7626;42.674;23.284;2023-07-30T07:13:43;3.08;;;2.88;;
15055;SDS011;7626;42.674;23.284;2023-07-30T07:16:10;3.10;;;2.90;;
15055;SDS011;7626;42.674;23.284;2023-07-30T07:18:36;3.65;;;3.35;;
15055;SDS011;7626;42.674;23.284;2023-07-30T07:21:04;3.53;;;3.20;;
15055;SDS011;7626;42.674;23.284;2023-07-30T07:23:31;2.92;;;2.63;;
15055;SDS011;7626;42.674;23.284;2023-07-30T07:25:57;3.13;;;2.83;;
15055;SDS011;7626;42.674;23.284;2023-07-30T07:28:24;3.15;;;2.95;;
15055;SDS011;7626;42.674;23.284;2023-07-30T07:30:50;3.95;;;3.20;;
15055;SDS011;7626;42.674;23.284;2023-07-30T07:33:16;4.18;;;3.10;;
15055;SDS011;7626;42.674;23.284;2023-07-30T07:35:43;3.40;;;3.10;;
15055;SDS011;7626;42.674;23.284;2023-07-30T07:38:11;3.00;;;2.70;;
15055;SDS011;7626;42.674;23.284;2023-07-30T07:40:37;2.90;;;2.70;;
15055;SDS011;7626;42.674;23.284;2023-07-30T07:43:05;3.65;;;2.92;;
15055;SDS011;7626;42.674;23.284;2023-07-30T07:45:32;2.88;;;2.63;;
15055;SDS011;7626;42.674;23.284;2023-07-30T07:47:58;3.05;;;2.75;;
15055;SDS011;7626;42.674;23.284;2023-07-30T07:50:25;3.10;;;2.80;;
15055;SDS011;7626;42.674;23.284;2023-07-30T07:52:52;3.58;;;3.28;;
15055;SDS011;7626;42.674;23.284;2023-07-30T07:55:20;3.40;;;2.95;;
15055;SDS011;7626;42.674;23.284;2023-07-30T07:57:46;3.63;;;3.05;;
15055;SDS011;7626;42.674;23.284;2023-07-30T08:00:12;3.63;;;3.10;;
15055;SDS011;7626;42.674;23.284;2023-07-30T08:02:39;3.05;;;2.85;;
15055;SDS011;7626;42.674;23.284;2023-07-30T08:05:06;3.17;;;2.88;;
15055;SDS011;7626;42.674;23.284;2023-07-30T08:07:32;3.42;;;3.00;;
15055;SDS011;7626;42.674;23.284;2023-07-30T08:09:59;3.25;;;2.95;;
15055;SDS011;7626;42.674;23.284;2023-07-30T08:12:27;4.35;;;2.83;;
15055;SDS011;7626;42.674;23.284;2023-07-30T08:14:53;3.10;;;2.90;;
15055;SDS011;7626;42.674;23.284;2023-07-30T08:17:21;3.10;;;2.90;;
15055;SDS011;7626;42.674;23.284;2023-07-30T08:19:47;3.20;;;2.90;;
15055;SDS011;7626;42.674;23.284;2023-07-30T08:22:14;3.10;;;2.90;;
15055;SDS011;7626;42.674;23.284;2023-07-30T08:24:40;3.30;;;3.00;;
15055;SDS011;7626;42.674;23.284;2023-07-30T08:27:07;3.15;;;2.88;;
15055;SDS011;7626;42.674;23.284;2023-07-30T08:29:35;3.30;;;3.00;;
15055;SDS011;7626;42.674;23.284;2023-07-30T08:32:01;3.20;;;2.90;;
15055;SDS011;7626;42.674;23.284;2023-07-30T08:34:28;3.30;;;2.85;;
15055;SDS011;7626;42.674;23.284;2023-07-30T08:36:54;3.10;;;2.90;;
15055;SDS011;7626;42.674;23.284;2023-07-30T08:39:21;2.95;;;2.75;;
15055;SDS011;7626;42.674;23.284;2023-07-30T08:41:47;3.63;;;3.30;;
15055;SDS011;7626;42.674;23.284;2023-07-30T08:44:14;3.75;;;3.42;;
15055;SDS011;7626;42.674;23.284;2023-07-30T08:46:42;3.55;;;3.25;;
15055;SDS011;7626;42.674;23.284;2023-07-30T08:49:08;3.58;;;3.28;;
15055;SDS011;7626;42.674;23.284;2023-07-30T08:51:35;3.05;;;2.80;;
15055;SDS011;7626;42.674;23.284;2023-07-30T08:54:02;3.60;;;3.30;;
15055;SDS011;7626;42.674;23.284;2023-07-30T08:56:30;3.50;;;3.20;;
15055;SDS011;7626;42.674;23.284;2023-07-30T08:58:56;3.53;;;3.22;;
15055;SDS011;7626;42.674;23.284;2023-07-30T09:01:24;3.80;;;3.30;;
15055;SDS011;7626;42.674;23.284;2023-07-30T09:03:54;3.20;;;2.97;;
15055;SDS011;7626;42.674;23.284;2023-07-30T09:06:21;3.70;;;3.38;;
15055;SDS011;7626;42.674;23.284;2023-07-30T09:08:47;3.03;;;2.83;;
15055;SDS011;7626;42.674;23.284;2023-07-30T09:11:14;3.47;;;2.95;;
15055;SDS011;7626;42.674;23.284;2023-07-30T09:13:41;3.65;;;3.33;;
15055;SDS011;7626;42.674;23.284;2023-07-30T09:16:08;3.78;;;3.38;;
15055;SDS011;7626;42.674;23.284;2023-07-30T09:18:38;4.57;;;3.42;;
15055;SDS011;7626;42.674;23.284;2023-07-30T09:21:06;3.45;;;3.20;;
15055;SDS011;7626;42.674;23.284;2023-07-30T09:23:32;3.33;;;3.03;;
15055;SDS011;7626;42.674;23.284;2023-07-30T09:26:05;3.13;;;2.92;;
15055;SDS011;7626;42.674;23.284;2023-07-30T09:28:31;3.05;;;2.83;;
15055;SDS011;7626;42.674;23.284;2023-07-30T09:30:59;4.97;;;3.33;;
15055;SDS011;7626;42.674;23.284;2023-07-30T09:33:26;3.78;;;3.20;;
15055;SDS011;7626;42.674;23.284;2023-07-30T09:35:52;3.50;;;3.20;;
15055;SDS011;7626;42.674;23.284;2023-07-30T09:38:22;3.22;;;2.90;;
15055;SDS011;7626;42.674;23.284;2023-07-30T09:40:48;3.50;;;3.20;;
15055;SDS011;7626;42.674;23.284;2023-07-30T09:43:15;3.58;;;3.28;;
15055;SDS011;7626;42.674;23.284;2023-07-30T09:45:44;3.40;;;3.10;;
15055;SDS011;7626;42.674;23.284;2023-07-30T09:48:11;3.60;;;3.30;;
15055;SDS011;7626;42.674;23.284;2023-07-30T09:50:37;3.40;;;3.10;;
15055;SDS011;7626;42.674;23.284;2023-07-30T09:53:04;3.50;;;3.20;;
15055;SDS011;7626;42.674;23.284;2023-07-30T09:55:32;3.53;;;3.22;;
15055;SDS011;7626;42.674;23.284;2023-07-30T09:57:58;3.40;;;3.10;;
15055;SDS011;7626;42.674;23.284;2023-07-30T10:00:25;3.22;;;2.88;;
15055;SDS011;7626;42.674;23.284;2023-07-30T10:02:53;3.72;;;3.35;;
15055;SDS011;7626;42.674;23.284;2023-07-30T10:05:22;3.50;;;3.20;;
15055;SDS011;7626;42.674;23.284;2023-07-30T10:07:56;3.20;;;2.90;;
15055;SDS011;7626;42.674;23.284;2023-07-30T10:10:24;4.30;;;3.30;;
15055;SDS011;7626;42.674;23.284;2023-07-30T10:12:52;3.40;;;3.10;;
15055;SDS011;7626;42.674;23.284;2023-07-30T10:15:19;3.65;;;3.35;;
15055;SDS011;7626;42.674;23.284;2023-07-30T10:17:48;3.40;;;3.10;;
15055;SDS011;7626;42.674;23.284;2023-07-30T10:20:19;4.07;;;3.47;;
15055;SDS011;7626;42.674;23.284;2023-07-30T10:22:46;4.43;;;3.40;;
15055;SDS011;7626;42.674;23.284;2023-07-30T10:25:12;5.22;;;3.40;;
15055;SDS011;7626;42.674;23.284;2023-07-30T10:27:40;4.00;;;3.20;;
15055;SDS011;7626;42.674;23.284;2023-07-30T10:30:10;3.88;;;3.30;;
15055;SDS011;7626;42.674;23.284;2023-07-30T10:32:37;3.40;;;3.10;;
15055;SDS011;7626;42.674;23.284;2023-07-30T10:35:04;3.40;;;3.10;;
15055;SDS011;7626;42.674;23.284;2023-07-30T10:37:30;3.38;;;3.08;;
15055;SDS011;7626;42.674;23.284;2023-07-30T10:39:57;3.40;;;3.10;;
15055;SDS011;7626;42.674;23.284;2023-07-30T10:42:23;3.20;;;3.00;;
15055;SDS011;7626;42.674;23.284;2023-07-30T10:44:50;3.63;;;3.13;;
15055;SDS011;7626;42.674;23.284;2023-07-30T10:47:18;3.70;;;3.40;;
15055;SDS011;7626;42.674;23.284;2023-07-30T10:49:44;3.53;;;3.22;;
15055;SDS011;7626;42.674;23.284;2023-07-30T10:52:11;5.40;;;3.47;;
15055;SDS011;7626;42.674;23.284;2023-07-30T10:54:38;3.80;;;3.30;;
15055;SDS011;7626;42.674;23.284;2023-07-30T10:57:05;3.50;;;3.20;;
15055;SDS011;7626;42.674;23.284;2023-07-30T10:59:32;3.60;;;3.30;;
15055;SDS011;7626;42.674;23.284;2023-07-30T11:02:01;3.60;;;3.30;;
15055;SDS011;7626;42.674;23.284;2023-07-30T11:04:32;3.53;;;3.20;;
15055;SDS011;7626;42.674;23.284;2023-07-30T11:06:59;3.85;;;3.45;;
15055;SDS011;7626;42.674;23.284;2023-07-30T11:09:27;3.65;;;3.30;;
15055;SDS011;7626;42.674;23.284;2023-07-30T11:11:54;3.83;;;3.45;;
15055;SDS011;7626;42.674;23.284;2023-07-30T11:14:22;3.47;;;3.28;;
15055;SDS011;7626;42.674;23.284;2023-07-30T11:16:51;3.80;;;3.50;;
15055;SDS011;7626;42.674;23.284;2023-07-30T11:19:18;3.53;;;3.22;;
15055;SDS011;7626;42.674;23.284;2023-07-30T11:21:46;4.07;;;3.67;;
15055;SDS011;7626;42.674;23.284;2023-07-30T11:24:13;3.88;;;3.55;;
15055;SDS011;7626;42.674;23.284;2023-07-30T11:26:40;3.92;;;3.63;;
15055;SDS011;7626;42.674;23.284;2023-07-30T11:29:13;3.60;;;3.30;;
15055;SDS011;7626;42.674;23.284;2023-07-30T11:31:40;3.80;;;3.50;;
15055;SDS011;7626;42.674;23.284;2023-07-30T11:34:07;4.03;;;3.33;;
15055;SDS011;7626;42.674;23.284;2023-07-30T11:36:33;3.80;;;3.50;;
15055;SDS011;7626;42.674;23.284;2023-07-30T11:39:01;3.63;;;3.33;;
15055;SDS011;7626;42.674;23.284;2023-07-30T11:41:28;4.82;;;3.33;;
15055;SDS011;7626;42.674;23.284;2023-07-30T11:43:54;4.60;;;4.10;;
15055;SDS011;7626;42.674;23.284;2023-07-30T11:46:21;4.43;;;3.42;;
15055;SDS011;7626;42.674;23.284;2023-07-30T11:48:49;3.33;;;3.10;;
15055;SDS011;7626;42.674;23.284;2023-07-30T11:51:20;4.20;;;3.80;;
15055;SDS011;7626;42.674;23.284;2023-07-30T11:53:47;4.18;;;3.80;;
15055;SDS011;7626;42.674;23.284;2023-07-30T11:56:25;4.38;;;3.97;;
15055;SDS011;7626;42.674;23.284;2023-07-30T11:58:53;3.95;;;3.60;;
15055;SDS011;7626;42.674;23.284;2023-07-30T12:01:20;4.22;;;3.83;;
15055;SDS011;7626;42.674;23.284;2023-07-30T12:03:49;4.00;;;3.70;;
15055;SDS011;7626;42.674;23.284;2023-07-30T12:06:15;4.05;;;3.65;;
15055;SDS011;7626;42.674;23.284;2023-07-30T12:08:41;4.15;;;3.80;;
15055;SDS011;7626;42.674;23.284;2023-07-30T12:11:09;4.20;;;3.70;;
15055;SDS011;7626;42.674;23.284;2023-07-30T12:13:43;3.78;;;3.42;;
15055;SDS011;7626;42.674;23.284;2023-07-30T12:16:10;3.80;;;3.50;;
15055;SDS011;7626;42.674;23.284;2023-07-30T12:18:37;3.90;;;3.60;;
15055;SDS011;7626;42.674;23.284;2023-07-30T12:21:04;4.00;;;3.50;;
15055;SDS011;7626;42.674;23.284;2023-07-30T12:23:32;3.92;;;3.38;;
15055;SDS011;7626;42.674;23.284;2023-07-30T12:25:59;3.85;;;3.55;;
15055;SDS011;7626;42.674;23.284;2023-07-30T12:28:25;4.10;;;3.70;;
15055;SDS011;7626;42.674;23.284;2023-07-30T12:30:53;3.92;;;3.53;;
15055;SDS011;7626;42.674;23.284;2023-07-30T12:33:20;3.90;;;3.60;;
15055;SDS011;7626;42.674;23.284;2023-07-30T12:35:46;4.45;;;3.90;;
15055;SDS011;7626;42.674;23.284;2023-07-30T12:38:15;4.03;;;3.72;;
15055;SDS011;7626;42.674;23.284;2023-07-30T12:40:41;3.85;;;3.55;;
15055;SDS011;7626;42.674;23.284;2023-07-30T12:43:08;4.32;;;3.72;;
15055;SDS011;7626;42.674;23.284;2023-07-30T12:45:35;4.35;;;3.70;;
15055;SDS011;7626;42.674;23.284;2023-07-30T12:48:03;3.85;;;3.40;;
15055;SDS011;7626;42.674;23.284;2023-07-30T12:50:29;4.20;;;3.80;;
15055;SDS011;7626;42.674;23.284;2023-07-30T12:52:56;3.97;;;3.53;;
15055;SDS011;7626;42.674;23.284;2023-07-30T12:55:22;3.70;;;3.40;;
15055;SDS011;7626;42.674;23.284;2023-07-30T12:57:49;3.88;;;3.53;;
15055;SDS011;7626;42.674;23.284;2023-07-30T13:00:16;4.05;;;3.70;;
15055;SDS011;7626;42.674;23.284;2023-07-30T13:02:42;3.42;;;3.10;;
15055;SDS011;7626;42.674;23.284;2023-07-30T13:05:10;3.75;;;3.45;;
15055;SDS011;7626;42.674;23.284;2023-07-30T13:07:38;3.58;;;3.28;;
15055;SDS011;7626;42.674;23.284;2023-07-30T13:10:05;4.00;;;3.60;;
15055;SDS011;7626;42.674;23.284;2023-07-30T13:12:32;3.95;;;3.65;;
15055;SDS011;7626;42.674;23.284;2023-07-30T13:14:59;4.40;;;4.00;;
15055;SDS011;7626;42.674;23.284;2023-07-30T13:17:26;4.22;;;3.70;;
15055;SDS011;7626;42.674;23.284;2023-07-30T13:19:52;3.63;;;3.33;;
15055;SDS011;7626;42.674;23.284;2023-07-30T13:22:20;3.60;;;3.30;;
15055;SDS011;7626;42.674;23.284;2023-07-30T13:24:46;3.63;;;3.33;;
15055;SDS011;7626;42.674;23.284;2023-07-30T13:27:13;3.50;;;3.20;;
15055;SDS011;7626;42.674;23.284;2023-07-30T13:29:39;3.60;;;3.30;;
15055;SDS011;7626;42.674;23.284;2023-07-30T13:32:06;3.95;;;3.63;;
15055;SDS011;7626;42.674;23.284;2023-07-30T13:34:32;3.75;;;3.45;;
15055;SDS011;7626;42.674;23.284;2023-07-30T13:36:59;3.70;;;3.40;;
15055;SDS011;7626;42.674;23.284;2023-07-30T13:39:27;3.72;;;3.40;;
15055;SDS011;7626;42.674;23.284;2023-07-30T13:41:53;3.90;;;3.60;;
15055;SDS011;7626;42.674;23.284;2023-07-30T13:44:20;3.88;;;3.58;;
15055;SDS011;7626;42.674;23.284;2023-07-30T13:46:46;3.60;;;3.10;;
15055;SDS011;7626;42.674;23.284;2023-07-30T13:49:13;4.50;;;3.25;;
15055;SDS011;7626;42.674;23.284;2023-07-30T13:51:39;4.00;;;3.60;;
15055;SDS011;7626;42.674;23.284;2023-07-30T13:54:06;4.75;;;3.72;;
15055;SDS011;7626;42.674;23.284;2023-07-30T13:56:34;3.78;;;3.47;;
15055;SDS011;7626;42.674;23.284;2023-07-30T13:59:01;3.38;;;3.17;;
15055;SDS011;7626;42.674;23.284;2023-07-30T14:01:28;4.82;;;3.63;;
15055;SDS011;7626;42.674;23.284;2023-07-30T14:03:54;3.72;;;3.42;;
15055;SDS011;7626;42.674;23.284;2023-07-30T14:06:21;3.67;;;3.38;;
15055;SDS011;7626;42.674;23.284;2023-07-30T14:08:47;3.88;;;3.58;;
15055;SDS011;7626;42.674;23.284;2023-07-30T14:11:14;3.83;;;3.53;;
15055;SDS011;7626;42.674;23.284;2023-07-30T14:13:42;3.90;;;3.50;;
15055;SDS011;7626;42.674;23.284;2023-07-30T14:16:08;3.70;;;3.40;;
15055;SDS011;7626;42.674;23.284;2023-07-30T14:18:35;3.72;;;3.40;;
15055;SDS011;7626;42.674;23.284;2023-07-30T14:21:03;3.88;;;3.47;;
15055;SDS011;7626;42.674;23.284;2023-07-30T14:23:29;4.07;;;3.58;;
15055;SDS011;7626;42.674;23.284;2023-07-30T14:25:56;3.80;;;3.50;;
15055;SDS011;7626;42.674;23.284;2023-07-30T14:28:22;3.80;;;3.42;;
15055;SDS011;7626;42.674;23.284;2023-07-30T14:30:50;3.92;;;3.63;;
15055;SDS011;7626;42.674;23.284;2023-07-30T14:33:17;3.83;;;3.45;;
15055;SDS011;7626;42.674;23.284;2023-07-30T14:35:43;3.97;;;3.67;;
15055;SDS011;7626;42.674;23.284;2023-07-30T14:38:10;3.60;;;3.30;;
15055;SDS011;7626;42.674;23.284;2023-07-30T14:40:37;3.90;;;3.60;;
15055;SDS011;7626;42.674;23.284;2023-07-30T14:43:04;5.07;;;4.15;;
15055;SDS011;7626;42.674;23.284;2023-07-30T14:45:30;4.20;;;3.80;;